sensor_id;sensor_type;location;lat;lon;timestamp;P1;durP1;ratioP1;P2;durP2;ratioP2
16440;SDS011;8330;-33.858;151.184;2023-07-20T00:02:21;10.68;;;2.78;;
16440;SDS011;8330;-33.858;151.184;2023-07-20T00:04:54;7.03;;;2.65;;
16440;SDS011;8330;-33.858;151.184;2023-07-20T00:07:25;6.18;;;2.33;;
16440;SDS011;8330;-33.858;151.184;2023-07-20T00:10:00;7.00;;;2.58;;
16440;SDS011;8330;-33.858;151.184;2023-07-20T00:12:35;8.85;;;2.42;;
16440;SDS011;8330;-33.858;151.184;2023-07-20T00:15:10;7.80;;;2.60;;
16440;SDS011;8330;-33.858;151.184;2023-07-20T00:17:41;5.88;;;2.30;;
16440;SDS011;8330;-33.858;151.184;2023-07-20T00:20:16;6.65;;;2.40;;
16440;SDS011;8330;-33.858;151.184;2023-07-20T00:22:47;8.57;;;2.38;;
16440;SDS011;8330;-33.858;151.184;2023-07-20T00:25:18;5.00;;;1.90;;
16440;SDS011;8330;-33.858;151.184;2023-07-20T00:27:50;4.88;;;1.77;;
16440;SDS011;8330;-33.858;151.184;2023-07-20T00:30:24;5.20;;;1.80;;
16440;SDS011;8330;-33.858;151.184;2023-07-20T00:32:55;8.70;;;2.70;;
16440;SDS011;8330;-33.858;151.184;2023-07-20T00:35:29;4.45;;;1.85;;
16440;SDS011;8330;-33.858;151.184;2023-07-20T00:38:00;6.53;;;1.92;;
16440;SDS011;8330;-33.858;151.184;2023-07-20T00:40:36;6.90;;;1.85;;
16440;SDS011;8330;-33.858;151.184;2023-07-20T00:43:08;7.30;;;1.80;;
16440;SDS011;8330;-33.858;151.184;2023-07-20T00:45:39;7.38;;;1.75;;
16440;SDS011;8330;-33.858;151.184;2023-07-20T00:48:12;7.32;;;1.80;;
16440;SDS011;8330;-33.858;151.184;2023-07-20T00:50:48;5.20;;;1.83;;
16440;SDS011;8330;-33.858;151.184;2023-07-20T00:53:21;8.00;;;1.98;;
16440;SDS011;8330;-33.858;151.184;2023-07-20T00:55:53;5.90;;;1.83;;
16440;SDS011;8330;-33.858;151.184;2023-07-20T00:58:24;4.97;;;1.58;;
16440;SDS011;8330;-33.858;151.184;2023-07-20T01:00:56;6.25;;;1.70;;
16440;SDS011;8330;-33.858;151.184;2023-07-20T01:03:27;8.00;;;1.90;;
16440;SDS011;8330;-33.858;151.184;2023-07-20T01:06:02;6.10;;;1.88;;
16440;SDS011;8330;-33.858;151.184;2023-07-20T01:08:45;6.97;;;1.55;;
16440;SDS011;8330;-33.858;151.184;2023-07-20T01:11:28;4.10;;;1.38;;
16440;SDS011;8330;-33.858;151.184;2023-07-20T01:14:05;3.55;;;1.02;;
16440;SDS011;8330;-33.858;151.184;2023-07-20T01:16:37;4.60;;;1.20;;
16440;SDS011;8330;-33.858;151.184;2023-07-20T01:19:10;2.78;;;1.10;;
16440;SDS011;8330;-33.858;151.184;2023-07-20T01:21:45;2.08;;;0.80;;
16440;SDS011;8330;-33.858;151.184;2023-07-20T01:24:34;3.88;;;0.82;;
16440;SDS011;8330;-33.858;151.184;2023-07-20T01:27:33;2.63;;;0.50;;
16440;SDS011;8330;-33.858;151.184;2023-07-20T01:33:31;2.83;;;0.80;;
16440;SDS011;8330;-33.858;151.184;2023-07-20T01:36:03;1.90;;;0.73;;
16440;SDS011;8330;-33.858;151.184;2023-07-20T01:38:34;2.53;;;0.63;;
16440;SDS011;8330;-33.858;151.184;2023-07-20T01:41:06;1.65;;;0.68;;
16440;SDS011;8330;-33.858;151.184;2023-07-20T01:43:38;2.38;;;0.68;;
16440;SDS011;8330;-33.858;151.184;2023-07-20T01:46:09;3.53;;;0.60;;
16440;SDS011;8330;-33.858;151.184;2023-07-20T01:48:42;2.45;;;0.45;;
16440;SDS011;8330;-33.858;151.184;2023-07-20T01:51:13;1.98;;;0.60;;
16440;SDS011;8330;-33.858;151.184;2023-07-20T01:53:45;1.63;;;0.40;;
16440;SDS011;8330;-33.858;151.184;2023-07-20T01:56:16;1.58;;;0.40;;
16440;SDS011;8330;-33.858;151.184;2023-07-20T01:58:47;0.60;;;0.47;;
16440;SDS011;8330;-33.858;151.184;2023-07-20T02:01:19;1.05;;;0.40;;
16440;SDS011;8330;-33.858;151.184;2023-07-20T02:03:52;2.65;;;0.65;;
16440;SDS011;8330;-33.858;151.184;2023-07-20T02:06:23;1.15;;;0.43;;
16440;SDS011;8330;-33.858;151.184;2023-07-20T02:08:54;1.80;;;0.70;;
16440;SDS011;8330;-33.858;151.184;2023-07-20T02:11:25;2.33;;;0.80;;
16440;SDS011;8330;-33.858;151.184;2023-07-20T02:13:56;2.03;;;0.40;;
16440;SDS011;8330;-33.858;151.184;2023-07-20T02:16:27;3.10;;;0.70;;
16440;SDS011;8330;-33.858;151.184;2023-07-20T02:19:00;2.58;;;0.63;;
16440;SDS011;8330;-33.858;151.184;2023-07-20T02:21:33;1.63;;;0.50;;
16440;SDS011;8330;-33.858;151.184;2023-07-20T02:24:05;1.33;;;0.50;;
16440;SDS011;8330;-33.858;151.184;2023-07-20T02:26:36;2.67;;;0.70;;
16440;SDS011;8330;-33.858;151.184;2023-07-20T02:29:07;1.88;;;0.60;;
16440;SDS011;8330;-33.858;151.184;2023-07-20T02:31:39;1.95;;;0.40;;
16440;SDS011;8330;-33.858;151.184;2023-07-20T02:34:12;1.73;;;0.50;;
16440;SDS011;8330;-33.858;151.184;2023-07-20T02:36:43;1.98;;;0.55;;
16440;SDS011;8330;-33.858;151.184;2023-07-20T02:39:14;1.02;;;0.57;;
16440;SDS011;8330;-33.858;151.184;2023-07-20T02:41:45;3.30;;;0.50;;
16440;SDS011;8330;-33.858;151.184;2023-07-20T02:44:16;2.10;;;0.70;;
16440;SDS011;8330;-33.858;151.184;2023-07-20T02:46:47;4.68;;;0.60;;
16440;SDS011;8330;-33.858;151.184;2023-07-20T02:49:22;1.83;;;0.43;;
16440;SDS011;8330;-33.858;151.184;2023-07-20T02:51:53;2.58;;;0.60;;
16440;SDS011;8330;-33.858;151.184;2023-07-20T02:54:24;1.17;;;0.50;;
16440;SDS011;8330;-33.858;151.184;2023-07-20T02:56:56;2.47;;;0.60;;
16440;SDS011;8330;-33.858;151.184;2023-07-20T02:59:27;2.03;;;0.60;;
16440;SDS011;8330;-33.858;151.184;2023-07-20T03:01:58;1.38;;;0.60;;
16440;SDS011;8330;-33.858;151.184;2023-07-20T03:04:31;1.35;;;0.57;;
16440;SDS011;8330;-33.858;151.184;2023-07-20T03:07:04;2.15;;;0.60;;
16440;SDS011;8330;-33.858;151.184;2023-07-20T03:09:37;0.70;;;0.40;;
16440;SDS011;8330;-33.858;151.184;2023-07-20T03:12:08;2.13;;;0.57;;
16440;SDS011;8330;-33.858;151.184;2023-07-20T03:14:40;3.75;;;0.70;;
16440;SDS011;8330;-33.858;151.184;2023-07-20T03:17:12;1.88;;;0.70;;
16440;SDS011;8330;-33.858;151.184;2023-07-20T03:19:45;2.15;;;0.77;;
16440;SDS011;8330;-33.858;151.184;2023-07-20T03:22:16;1.83;;;0.68;;
16440;SDS011;8330;-33.858;151.184;2023-07-20T03:24:48;1.48;;;0.50;;
16440;SDS011;8330;-33.858;151.184;2023-07-20T03:27:19;4.05;;;0.88;;
16440;SDS011;8330;-33.858;151.184;2023-07-20T03:29:51;4.90;;;0.68;;
16440;SDS011;8330;-33.858;151.184;2023-07-20T03:32:22;1.85;;;0.60;;
16440;SDS011;8330;-33.858;151.184;2023-07-20T03:34:57;1.65;;;0.52;;
16440;SDS011;8330;-33.858;151.184;2023-07-20T03:37:28;1.90;;;0.50;;
16440;SDS011;8330;-33.858;151.184;2023-07-20T03:40:01;1.55;;;0.60;;
16440;SDS011;8330;-33.858;151.184;2023-07-20T03:42:33;1.70;;;0.70;;
16440;SDS011;8330;-33.858;151.184;2023-07-20T03:45:05;3.05;;;0.90;;
16440;SDS011;8330;-33.858;151.184;2023-07-20T03:47:36;1.90;;;0.70;;
16440;SDS011;8330;-33.858;151.184;2023-07-20T03:50:10;1.75;;;0.60;;
16440;SDS011;8330;-33.858;151.184;2023-07-20T03:52:41;2.08;;;0.65;;
16440;SDS011;8330;-33.858;151.184;2023-07-20T03:55:12;2.53;;;0.80;;
16440;SDS011;8330;-33.858;151.184;2023-07-20T03:57:43;2.45;;;0.88;;
16440;SDS011;8330;-33.858;151.184;2023-07-20T04:00:17;2.72;;;0.70;;
16440;SDS011;8330;-33.858;151.184;2023-07-20T04:02:47;0.70;;;0.50;;
16440;SDS011;8330;-33.858;151.184;2023-07-20T04:05:20;3.53;;;0.60;;
16440;SDS011;8330;-33.858;151.184;2023-07-20T04:07:52;1.65;;;0.70;;
16440;SDS011;8330;-33.858;151.184;2023-07-20T04:10:24;1.55;;;0.60;;
16440;SDS011;8330;-33.858;151.184;2023-07-20T04:12:55;2.17;;;0.52;;
16440;SDS011;8330;-33.858;151.184;2023-07-20T04:15:26;2.03;;;0.70;;
16440;SDS011;8330;-33.858;151.184;2023-07-20T04:17:57;2.00;;;0.50;;
16440;SDS011;8330;-33.858;151.184;2023-07-20T04:20:30;1.02;;;0.55;;
16440;SDS011;8330;-33.858;151.184;2023-07-20T04:23:01;5.97;;;0.75;;
16440;SDS011;8330;-33.858;151.184;2023-07-20T04:25:33;1.40;;;0.70;;
16440;SDS011;8330;-33.858;151.184;2023-07-20T04:28:07;1.10;;;0.55;;
16440;SDS011;8330;-33.858;151.184;2023-07-20T04:30:38;1.30;;;0.60;;
16440;SDS011;8330;-33.858;151.184;2023-07-20T04:33:09;2.67;;;0.60;;
16440;SDS011;8330;-33.858;151.184;2023-07-20T04:35:52;2.08;;;0.60;;
16440;SDS011;8330;-33.858;151.184;2023-07-20T04:38:23;2.15;;;0.55;;
16440;SDS011;8330;-33.858;151.184;2023-07-20T04:40:54;4.97;;;0.80;;
16440;SDS011;8330;-33.858;151.184;2023-07-20T04:43:25;4.53;;;0.68;;
16440;SDS011;8330;-33.858;151.184;2023-07-20T04:45:58;5.10;;;0.77;;
16440;SDS011;8330;-33.858;151.184;2023-07-20T04:48:30;2.42;;;0.57;;
16440;SDS011;8330;-33.858;151.184;2023-07-20T04:51:03;1.85;;;0.57;;
16440;SDS011;8330;-33.858;151.184;2023-07-20T04:53:34;1.52;;;0.80;;
16440;SDS011;8330;-33.858;151.184;2023-07-20T04:56:05;4.70;;;0.85;;
16440;SDS011;8330;-33.858;151.184;2023-07-20T04:58:37;2.35;;;0.50;;
16440;SDS011;8330;-33.858;151.184;2023-07-20T05:01:08;2.60;;;0.60;;
16440;SDS011;8330;-33.858;151.184;2023-07-20T05:03:39;1.25;;;0.57;;
16440;SDS011;8330;-33.858;151.184;2023-07-20T05:06:12;1.35;;;0.50;;
16440;SDS011;8330;-33.858;151.184;2023-07-20T05:08:43;2.60;;;0.80;;
16440;SDS011;8330;-33.858;151.184;2023-07-20T05:11:14;1.98;;;0.52;;
16440;SDS011;8330;-33.858;151.184;2023-07-20T05:13:46;2.90;;;0.50;;
16440;SDS011;8330;-33.858;151.184;2023-07-20T05:16:17;1.85;;;0.50;;
16440;SDS011;8330;-33.858;151.184;2023-07-20T05:18:49;2.70;;;0.70;;
16440;SDS011;8330;-33.858;151.184;2023-07-20T05:21:25;2.60;;;0.50;;
16440;SDS011;8330;-33.858;151.184;2023-07-20T05:23:56;0.75;;;0.50;;
16440;SDS011;8330;-33.858;151.184;2023-07-20T05:26:27;3.78;;;0.63;;
16440;SDS011;8330;-33.858;151.184;2023-07-20T05:28:59;0.93;;;0.40;;
16440;SDS011;8330;-33.858;151.184;2023-07-20T05:31:32;3.45;;;1.10;;
16440;SDS011;8330;-33.858;151.184;2023-07-20T05:34:04;2.78;;;0.60;;
16440;SDS011;8330;-33.858;151.184;2023-07-20T05:36:38;1.48;;;0.60;;
16440;SDS011;8330;-33.858;151.184;2023-07-20T05:39:12;1.90;;;0.60;;
16440;SDS011;8330;-33.858;151.184;2023-07-20T05:41:43;2.35;;;0.50;;
16440;SDS011;8330;-33.858;151.184;2023-07-20T05:44:14;1.40;;;0.50;;
16440;SDS011;8330;-33.858;151.184;2023-07-20T05:46:45;0.85;;;0.47;;
16440;SDS011;8330;-33.858;151.184;2023-07-20T05:49:16;1.95;;;0.80;;
16440;SDS011;8330;-33.858;151.184;2023-07-20T05:51:54;2.00;;;0.50;;
16440;SDS011;8330;-33.858;151.184;2023-07-20T05:54:27;3.03;;;0.70;;
16440;SDS011;8330;-33.858;151.184;2023-07-20T05:56:58;6.15;;;0.80;;
16440;SDS011;8330;-33.858;151.184;2023-07-20T05:59:29;2.42;;;0.75;;
16440;SDS011;8330;-33.858;151.184;2023-07-20T06:02:00;1.15;;;0.50;;
16440;SDS011;8330;-33.858;151.184;2023-07-20T06:04:31;1.35;;;0.60;;
16440;SDS011;8330;-33.858;151.184;2023-07-20T06:07:05;0.73;;;0.52;;
16440;SDS011;8330;-33.858;151.184;2023-07-20T06:09:36;1.83;;;0.50;;
16440;SDS011;8330;-33.858;151.184;2023-07-20T06:12:08;1.30;;;0.52;;
16440;SDS011;8330;-33.858;151.184;2023-07-20T06:14:39;1.25;;;0.40;;
16440;SDS011;8330;-33.858;151.184;2023-07-20T06:17:10;1.33;;;0.60;;
16440;SDS011;8330;-33.858;151.184;2023-07-20T06:19:41;0.98;;;0.47;;
16440;SDS011;8330;-33.858;151.184;2023-07-20T06:22:14;1.02;;;0.50;;
16440;SDS011;8330;-33.858;151.184;2023-07-20T06:24:45;2.47;;;0.50;;
16440;SDS011;8330;-33.858;151.184;2023-07-20T06:27:16;0.47;;;0.40;;
16440;SDS011;8330;-33.858;151.184;2023-07-20T06:29:47;1.15;;;0.47;;
16440;SDS011;8330;-33.858;151.184;2023-07-20T06:32:19;2.08;;;0.43;;
16440;SDS011;8330;-33.858;151.184;2023-07-20T06:34:50;0.73;;;0.32;;
16440;SDS011;8330;-33.858;151.184;2023-07-20T06:37:26;2.17;;;0.70;;
16440;SDS011;8330;-33.858;151.184;2023-07-20T06:39:57;0.60;;;0.50;;
16440;SDS011;8330;-33.858;151.184;2023-07-20T06:42:28;1.73;;;0.60;;
16440;SDS011;8330;-33.858;151.184;2023-07-20T06:44:59;0.57;;;0.40;;
16440;SDS011;8330;-33.858;151.184;2023-07-20T06:47:32;1.20;;;0.50;;
16440;SDS011;8330;-33.858;151.184;2023-07-20T06:50:03;1.58;;;0.60;;
16440;SDS011;8330;-33.858;151.184;2023-07-20T06:52:37;0.85;;;0.50;;
16440;SDS011;8330;-33.858;151.184;2023-07-20T06:55:08;0.85;;;0.50;;
16440;SDS011;8330;-33.858;151.184;2023-07-20T06:57:39;1.65;;;0.50;;
16440;SDS011;8330;-33.858;151.184;2023-07-20T07:00:12;0.63;;;0.47;;
16440;SDS011;8330;-33.858;151.184;2023-07-20T07:02:43;1.38;;;0.40;;
16440;SDS011;8330;-33.858;151.184;2023-07-20T07:05:15;1.25;;;0.40;;
16440;SDS011;8330;-33.858;151.184;2023-07-20T07:07:48;1.30;;;0.60;;
16440;SDS011;8330;-33.858;151.184;2023-07-20T07:10:19;0.95;;;0.50;;
16440;SDS011;8330;-33.858;151.184;2023-07-20T07:12:51;0.90;;;0.50;;
16440;SDS011;8330;-33.858;151.184;2023-07-20T07:15:22;1.60;;;0.47;;
16440;SDS011;8330;-33.858;151.184;2023-07-20T07:17:53;1.58;;;0.60;;
16440;SDS011;8330;-33.858;151.184;2023-07-20T07:20:25;1.40;;;0.43;;
16440;SDS011;8330;-33.858;151.184;2023-07-20T07:23:11;1.00;;;0.50;;
16440;SDS011;8330;-33.858;151.184;2023-07-20T07:25:42;1.45;;;0.65;;
16440;SDS011;8330;-33.858;151.184;2023-07-20T07:28:15;1.40;;;0.60;;
16440;SDS011;8330;-33.858;151.184;2023-07-20T07:30:46;1.20;;;0.80;;
16440;SDS011;8330;-33.858;151.184;2023-07-20T07:33:17;1.60;;;0.73;;
16440;SDS011;8330;-33.858;151.184;2023-07-20T07:35:48;2.30;;;0.82;;
16440;SDS011;8330;-33.858;151.184;2023-07-20T07:38:22;1.50;;;0.60;;
16440;SDS011;8330;-33.858;151.184;2023-07-20T07:40:53;1.02;;;0.60;;
16440;SDS011;8330;-33.858;151.184;2023-07-20T07:43:24;2.15;;;0.70;;
16440;SDS011;8330;-33.858;151.184;2023-07-20T07:45:55;1.50;;;0.52;;
16440;SDS011;8330;-33.858;151.184;2023-07-20T07:48:27;2.38;;;0.80;;
16440;SDS011;8330;-33.858;151.184;2023-07-20T07:50:58;0.88;;;0.70;;
16440;SDS011;8330;-33.858;151.184;2023-07-20T07:53:31;3.38;;;0.80;;
16440;SDS011;8330;-33.858;151.184;2023-07-20T07:56:03;1.95;;;0.80;;
16440;SDS011;8330;-33.858;151.184;2023-07-20T07:58:36;1.05;;;0.75;;
16440;SDS011;8330;-33.858;151.184;2023-07-20T08:01:08;3.17;;;1.70;;
16440;SDS011;8330;-33.858;151.184;2023-07-20T08:03:39;2.85;;;1.70;;
16440;SDS011;8330;-33.858;151.184;2023-07-20T08:06:12;2.30;;;1.55;;
16440;SDS011;8330;-33.858;151.184;2023-07-20T08:08:45;2.95;;;1.55;;
16440;SDS011;8330;-33.858;151.184;2023-07-20T08:11:16;3.35;;;1.58;;
16440;SDS011;8330;-33.858;151.184;2023-07-20T08:13:47;2.10;;;1.52;;
16440;SDS011;8330;-33.858;151.184;2023-07-20T08:16:19;3.75;;;1.80;;
16440;SDS011;8330;-33.858;151.184;2023-07-20T08:18:51;3.92;;;1.50;;
16440;SDS011;8330;-33.858;151.184;2023-07-20T08:21:22;1.90;;;1.23;;
16440;SDS011;8330;-33.858;151.184;2023-07-20T08:23:56;2.22;;;1.20;;
16440;SDS011;8330;-33.858;151.184;2023-07-20T08:26:27;2.55;;;1.20;;
16440;SDS011;8330;-33.858;151.184;2023-07-20T08:28:58;2.03;;;1.33;;
16440;SDS011;8330;-33.858;151.184;2023-07-20T08:31:31;2.17;;;1.45;;
16440;SDS011;8330;-33.858;151.184;2023-07-20T08:34:02;2.20;;;1.40;;
16440;SDS011;8330;-33.858;151.184;2023-07-20T08:36:33;3.47;;;1.80;;
16440;SDS011;8330;-33.858;151.184;2023-07-20T08:39:07;2.97;;;1.40;;
16440;SDS011;8330;-33.858;151.184;2023-07-20T08:41:39;4.25;;;1.60;;
16440;SDS011;8330;-33.858;151.184;2023-07-20T08:44:12;6.43;;;1.70;;
16440;SDS011;8330;-33.858;151.184;2023-07-20T08:46:43;3.78;;;1.50;;
16440;SDS011;8330;-33.858;151.184;2023-07-20T08:49:16;3.97;;;1.30;;
16440;SDS011;8330;-33.858;151.184;2023-07-20T08:51:48;3.90;;;1.60;;
16440;SDS011;8330;-33.858;151.184;2023-07-20T08:54:22;4.28;;;1.65;;
16440;SDS011;8330;-33.858;151.184;2023-07-20T08:56:59;4.18;;;1.60;;
16440;SDS011;8330;-33.858;151.184;2023-07-20T08:59:35;2.58;;;1.40;;
16440;SDS011;8330;-33.858;151.184;2023-07-20T09:02:07;4.15;;;2.00;;
16440;SDS011;8330;-33.858;151.184;2023-07-20T09:04:41;4.20;;;1.80;;
16440;SDS011;8330;-33.858;151.184;2023-07-20T09:07:13;4.43;;;1.70;;
16440;SDS011;8330;-33.858;151.184;2023-07-20T09:09:47;3.17;;;1.88;;
16440;SDS011;8330;-33.858;151.184;2023-07-20T09:12:18;3.95;;;1.77;;
16440;SDS011;8330;-33.858;151.184;2023-07-20T09:14:49;5.70;;;2.08;;
16440;SDS011;8330;-33.858;151.184;2023-07-20T09:17:21;6.00;;;2.00;;
16440;SDS011;8330;-33.858;151.184;2023-07-20T09:19:56;4.72;;;2.10;;
16440;SDS011;8330;-33.858;151.184;2023-07-20T09:22:29;6.85;;;3.70;;
16440;SDS011;8330;-33.858;151.184;2023-07-20T09:25:03;10.43;;;4.00;;
16440;SDS011;8330;-33.858;151.184;2023-07-20T09:27:37;6.13;;;3.90;;
16440;SDS011;8330;-33.858;151.184;2023-07-20T09:30:09;8.23;;;4.07;;
16440;SDS011;8330;-33.858;151.184;2023-07-20T09:32:41;9.60;;;5.00;;
16440;SDS011;8330;-33.858;151.184;2023-07-20T09:35:13;6.75;;;4.60;;
16440;SDS011;8330;-33.858;151.184;2023-07-20T09:37:49;7.50;;;3.45;;
16440;SDS011;8330;-33.858;151.184;2023-07-20T09:40:24;4.93;;;2.65;;
16440;SDS011;8330;-33.858;151.184;2023-07-20T09:42:55;7.20;;;2.90;;
16440;SDS011;8330;-33.858;151.184;2023-07-20T09:45:31;6.05;;;2.60;;
16440;SDS011;8330;-33.858;151.184;2023-07-20T09:48:04;7.82;;;3.53;;
16440;SDS011;8330;-33.858;151.184;2023-07-20T09:50:39;6.72;;;3.95;;
16440;SDS011;8330;-33.858;151.184;2023-07-20T09:53:11;17.17;;;12.23;;
16440;SDS011;8330;-33.858;151.184;2023-07-20T09:55:46;29.33;;;22.25;;
16440;SDS011;8330;-33.858;151.184;2023-07-20T09:58:21;14.63;;;9.98;;
16440;SDS011;8330;-33.858;151.184;2023-07-20T10:00:55;23.75;;;16.55;;
16440;SDS011;8330;-33.858;151.184;2023-07-20T10:03:29;21.75;;;17.83;;
16440;SDS011;8330;-33.858;151.184;2023-07-20T10:06:02;23.33;;;17.63;;
16440;SDS011;8330;-33.858;151.184;2023-07-20T10:08:38;20.27;;;15.50;;
16440;SDS011;8330;-33.858;151.184;2023-07-20T10:11:12;22.83;;;18.05;;
16440;SDS011;8330;-33.858;151.184;2023-07-20T10:13:46;31.45;;;23.42;;
16440;SDS011;8330;-33.858;151.184;2023-07-20T10:16:26;40.53;;;32.28;;
16440;SDS011;8330;-33.858;151.184;2023-07-20T10:19:02;39.30;;;30.35;;
16440;SDS011;8330;-33.858;151.184;2023-07-20T10:21:37;16.10;;;12.32;;
16440;SDS011;8330;-33.858;151.184;2023-07-20T10:24:16;6.75;;;3.03;;
16440;SDS011;8330;-33.858;151.184;2023-07-20T10:26:50;4.45;;;2.30;;
16440;SDS011;8330;-33.858;151.184;2023-07-20T10:29:21;5.20;;;3.00;;
16440;SDS011;8330;-33.858;151.184;2023-07-20T10:31:53;3.75;;;2.20;;
16440;SDS011;8330;-33.858;151.184;2023-07-20T10:34:25;2.78;;;2.10;;
16440;SDS011;8330;-33.858;151.184;2023-07-20T10:36:57;5.30;;;3.10;;
16440;SDS011;8330;-33.858;151.184;2023-07-20T10:39:28;5.95;;;3.67;;
16440;SDS011;8330;-33.858;151.184;2023-07-20T10:42:06;5.68;;;3.40;;
16440;SDS011;8330;-33.858;151.184;2023-07-20T10:44:38;4.63;;;3.03;;
16440;SDS011;8330;-33.858;151.184;2023-07-20T10:47:10;4.57;;;2.97;;
16440;SDS011;8330;-33.858;151.184;2023-07-20T10:52:37;9.50;;;5.05;;
16440;SDS011;8330;-33.858;151.184;2023-07-20T10:55:10;10.10;;;4.35;;
16440;SDS011;8330;-33.858;151.184;2023-07-20T10:57:46;6.75;;;4.32;;
16440;SDS011;8330;-33.858;151.184;2023-07-20T11:00:38;8.63;;;4.82;;
16440;SDS011;8330;-33.858;151.184;2023-07-20T11:03:29;5.18;;;3.35;;
16440;SDS011;8330;-33.858;151.184;2023-07-20T11:09:09;7.63;;;3.92;;
16440;SDS011;8330;-33.858;151.184;2023-07-20T11:11:42;6.70;;;3.92;;
16440;SDS011;8330;-33.858;151.184;2023-07-20T11:14:25;7.65;;;3.95;;
16440;SDS011;8330;-33.858;151.184;2023-07-20T11:16:58;6.50;;;4.03;;
16440;SDS011;8330;-33.858;151.184;2023-07-20T11:19:41;5.97;;;3.97;;
16440;SDS011;8330;-33.858;151.184;2023-07-20T11:22:13;7.88;;;4.18;;
16440;SDS011;8330;-33.858;151.184;2023-07-20T11:24:47;8.10;;;4.30;;
16440;SDS011;8330;-33.858;151.184;2023-07-20T11:27:24;7.53;;;4.18;;
16440;SDS011;8330;-33.858;151.184;2023-07-20T11:29:58;9.50;;;3.55;;
16440;SDS011;8330;-33.858;151.184;2023-07-20T11:32:29;7.90;;;4.00;;
16440;SDS011;8330;-33.858;151.184;2023-07-20T11:35:00;5.28;;;3.78;;
16440;SDS011;8330;-33.858;151.184;2023-07-20T11:37:31;5.05;;;3.67;;
16440;SDS011;8330;-33.858;151.184;2023-07-20T11:40:03;6.53;;;4.15;;
16440;SDS011;8330;-33.858;151.184;2023-07-20T11:42:33;6.07;;;3.90;;
16440;SDS011;8330;-33.858;151.184;2023-07-20T11:45:06;4.78;;;3.33;;
16440;SDS011;8330;-33.858;151.184;2023-07-20T11:47:40;6.10;;;3.75;;
16440;SDS011;8330;-33.858;151.184;2023-07-20T11:50:11;5.85;;;4.18;;
16440;SDS011;8330;-33.858;151.184;2023-07-20T11:52:41;7.28;;;5.07;;
16440;SDS011;8330;-33.858;151.184;2023-07-20T11:55:12;5.68;;;4.28;;
16440;SDS011;8330;-33.858;151.184;2023-07-20T12:00:34;5.22;;;3.42;;
16440;SDS011;8330;-33.858;151.184;2023-07-20T12:03:06;7.97;;;3.70;;
16440;SDS011;8330;-33.858;151.184;2023-07-20T12:05:39;5.63;;;3.90;;
16440;SDS011;8330;-33.858;151.184;2023-07-20T12:08:11;7.43;;;3.75;;
16440;SDS011;8330;-33.858;151.184;2023-07-20T12:10:42;6.03;;;3.72;;
16440;SDS011;8330;-33.858;151.184;2023-07-20T12:13:15;7.47;;;3.83;;
16440;SDS011;8330;-33.858;151.184;2023-07-20T12:15:58;5.85;;;3.55;;
16440;SDS011;8330;-33.858;151.184;2023-07-20T12:18:43;5.88;;;3.58;;
16440;SDS011;8330;-33.858;151.184;2023-07-20T12:21:25;4.32;;;3.25;;
16440;SDS011;8330;-33.858;151.184;2023-07-20T12:24:04;6.05;;;3.17;;
16440;SDS011;8330;-33.858;151.184;2023-07-20T12:26:39;8.43;;;3.58;;
16440;SDS011;8330;-33.858;151.184;2023-07-20T12:29:16;6.60;;;3.80;;
16440;SDS011;8330;-33.858;151.184;2023-07-20T12:31:57;6.13;;;3.58;;
16440;SDS011;8330;-33.858;151.184;2023-07-20T12:34:29;4.63;;;3.42;;
16440;SDS011;8330;-33.858;151.184;2023-07-20T12:37:05;8.82;;;3.70;;
16440;SDS011;8330;-33.858;151.184;2023-07-20T12:39:50;7.18;;;3.88;;
16440;SDS011;8330;-33.858;151.184;2023-07-20T12:42:29;7.63;;;4.03;;
16440;SDS011;8330;-33.858;151.184;2023-07-20T12:45:07;7.75;;;4.10;;
16440;SDS011;8330;-33.858;151.184;2023-07-20T12:47:55;8.63;;;3.80;;
16440;SDS011;8330;-33.858;151.184;2023-07-20T12:50:35;10.82;;;3.80;;
16440;SDS011;8330;-33.858;151.184;2023-07-20T12:53:16;7.03;;;3.50;;
16440;SDS011;8330;-33.858;151.184;2023-07-20T12:56:01;7.95;;;3.65;;
16440;SDS011;8330;-33.858;151.184;2023-07-20T12:58:39;6.40;;;3.17;;
16440;SDS011;8330;-33.858;151.184;2023-07-20T13:01:16;8.30;;;3.85;;
16440;SDS011;8330;-33.858;151.184;2023-07-20T13:03:50;11.52;;;3.45;;
16440;SDS011;8330;-33.858;151.184;2023-07-20T13:06:22;7.20;;;3.55;;
16440;SDS011;8330;-33.858;151.184;2023-07-20T13:09:00;5.75;;;3.40;;
16440;SDS011;8330;-33.858;151.184;2023-07-20T13:11:42;4.15;;;2.85;;
16440;SDS011;8330;-33.858;151.184;2023-07-20T13:14:17;6.30;;;3.17;;
16440;SDS011;8330;-33.858;151.184;2023-07-20T13:16:56;3.88;;;2.70;;
16440;SDS011;8330;-33.858;151.184;2023-07-20T13:19:31;3.13;;;2.53;;
16440;SDS011;8330;-33.858;151.184;2023-07-20T13:22:10;4.55;;;2.85;;
16440;SDS011;8330;-33.858;151.184;2023-07-20T13:24:55;3.08;;;2.47;;
16440;SDS011;8330;-33.858;151.184;2023-07-20T13:27:26;3.22;;;2.50;;
16440;SDS011;8330;-33.858;151.184;2023-07-20T13:29:58;2.95;;;2.35;;
16440;SDS011;8330;-33.858;151.184;2023-07-20T13:32:42;2.97;;;2.30;;
16440;SDS011;8330;-33.858;151.184;2023-07-20T13:35:25;3.03;;;2.38;;
16440;SDS011;8330;-33.858;151.184;2023-07-20T13:37:59;3.30;;;2.35;;
16440;SDS011;8330;-33.858;151.184;2023-07-20T13:40:36;4.38;;;2.45;;
16440;SDS011;8330;-33.858;151.184;2023-07-20T13:43:22;3.35;;;2.50;;
16440;SDS011;8330;-33.858;151.184;2023-07-20T13:45:58;3.10;;;2.50;;
16440;SDS011;8330;-33.858;151.184;2023-07-20T13:48:47;4.95;;;2.70;;
16440;SDS011;8330;-33.858;151.184;2023-07-20T13:51:25;3.70;;;2.42;;
16440;SDS011;8330;-33.858;151.184;2023-07-20T13:54:02;3.90;;;2.50;;
16440;SDS011;8330;-33.858;151.184;2023-07-20T13:56:48;2.45;;;2.05;;
16440;SDS011;8330;-33.858;151.184;2023-07-20T13:59:21;3.47;;;2.17;;
16440;SDS011;8330;-33.858;151.184;2023-07-20T14:02:05;2.78;;;2.20;;
16440;SDS011;8330;-33.858;151.184;2023-07-20T14:04:37;2.53;;;2.08;;
16440;SDS011;8330;-33.858;151.184;2023-07-20T14:07:18;2.63;;;2.30;;
16440;SDS011;8330;-33.858;151.184;2023-07-20T14:09:51;2.70;;;1.90;;
16440;SDS011;8330;-33.858;151.184;2023-07-20T14:12:33;3.88;;;2.30;;
16440;SDS011;8330;-33.858;151.184;2023-07-20T14:15:06;2.20;;;1.83;;
16440;SDS011;8330;-33.858;151.184;2023-07-20T14:17:39;2.03;;;1.50;;
16440;SDS011;8330;-33.858;151.184;2023-07-20T14:20:10;2.08;;;1.63;;
16440;SDS011;8330;-33.858;151.184;2023-07-20T14:22:45;4.85;;;2.00;;
16440;SDS011;8330;-33.858;151.184;2023-07-20T14:25:17;2.28;;;1.67;;
16440;SDS011;8330;-33.858;151.184;2023-07-20T14:27:49;5.03;;;2.10;;
16440;SDS011;8330;-33.858;151.184;2023-07-20T14:30:20;1.85;;;1.48;;
16440;SDS011;8330;-33.858;151.184;2023-07-20T14:32:51;1.90;;;1.70;;
16440;SDS011;8330;-33.858;151.184;2023-07-20T14:35:22;3.05;;;1.65;;
16440;SDS011;8330;-33.858;151.184;2023-07-20T14:37:55;2.10;;;1.60;;
16440;SDS011;8330;-33.858;151.184;2023-07-20T14:40:26;2.88;;;1.70;;
16440;SDS011;8330;-33.858;151.184;2023-07-20T14:42:58;2.45;;;1.70;;
16440;SDS011;8330;-33.858;151.184;2023-07-20T14:45:30;3.03;;;1.80;;
16440;SDS011;8330;-33.858;151.184;2023-07-20T14:48:01;2.72;;;1.58;;
16440;SDS011;8330;-33.858;151.184;2023-07-20T14:50:34;3.78;;;1.77;;
16440;SDS011;8330;-33.858;151.184;2023-07-20T14:53:07;2.30;;;1.48;;
16440;SDS011;8330;-33.858;151.184;2023-07-20T14:55:38;2.50;;;1.50;;
16440;SDS011;8330;-33.858;151.184;2023-07-20T14:58:11;2.42;;;1.50;;
16440;SDS011;8330;-33.858;151.184;2023-07-20T15:00:42;2.03;;;1.60;;
16440;SDS011;8330;-33.858;151.184;2023-07-20T15:03:13;2.90;;;1.50;;
16440;SDS011;8330;-33.858;151.184;2023-07-20T15:05:45;3.10;;;1.50;;
16440;SDS011;8330;-33.858;151.184;2023-07-20T15:08:20;2.50;;;1.35;;
16440;SDS011;8330;-33.858;151.184;2023-07-20T15:10:51;2.08;;;1.50;;